Time;durP1;ratioP1;P1;durP2;ratioP2;P2;SDS_P1;SDS_P2;PMS_P1;PMS_P2;Temp;Humidity;BMP_temperature;BMP_pressure;BME280_temperature;BME280_humidity;BME280_pressure;Samples;Min_cycle;Max_cycle;Signal;HPM_P1;HPM_P2
2021/09/30 00:01:07;;;;;;;2.47;1.57;;;9.10;99.90;;;;;;4947084;29;20671;-95
2021/09/30 00:03:34;;;;;;;2.90;1.43;;;9.10;99.90;;;;;;4945834;29;20705;-95
2021/09/30 00:06:02;;;;;;;2.67;1.40;;;9.20;99.90;;;;;;4944134;28;20646;-94
2021/09/30 00:08:30;;;;;;;1.83;1.40;;;9.10;99.90;;;;;;4943262;29;21000;-95
2021/09/30 00:11:06;;;;;;;1.67;1.37;;;9.20;99.90;;;;;;4940700;29;20697;-95
2021/09/30 00:13:42;;;;;;;2.13;1.13;;;9.20;99.90;;;;;;4944555;29;20665;-93
2021/09/30 00:16:42;;;;;;;2.67;1.50;;;9.10;99.90;;;;;;4939200;29;20642;-93
2021/09/30 00:33:19;;;;;;;2.27;1.60;;;8.90;99.90;;;;;;4947329;29;21599;-94
2021/09/30 00:35:56;;;;;;;1.60;1.27;;;8.90;99.90;;;;;;4946198;29;20642;-94
2021/09/30 00:41:22;;;;;;;2.17;0.90;;;8.80;99.90;;;;;;4940664;29;20647;-93
2021/09/30 00:46:45;;;;;;;2.23;1.03;;;8.80;99.90;;;;;;4953637;29;20579;-94
2021/09/30 00:49:32;;;;;;;3.43;1.20;;;8.70;99.90;;;;;;4961750;28;20654;-94
2021/09/30 00:52:03;;;;;;;2.20;1.20;;;8.60;99.90;;;;;;4941705;29;20677;-93
2021/09/30 00:54:44;;;;;;;2.97;1.13;;;8.50;99.90;;;;;;4944684;29;20698;-94
2021/09/30 02:20:23;;;;;;;3.20;1.90;;;7.70;99.90;;;;;;4909454;29;20691;-91
2021/09/30 02:28:53;;;;;;;3.73;2.40;;;7.70;99.90;;;;;;4901716;29;20675;-95
2021/09/30 02:59:09;;;;;;;3.80;1.97;;;7.40;99.90;;;;;;4931663;29;20639;-95
2021/09/30 03:01:39;;;;;;;5.80;3.23;;;7.30;99.90;;;;;;4929147;29;20695;-95
2021/09/30 03:04:07;;;;;;;2.27;1.67;;;7.30;99.90;;;;;;4942498;29;20643;-94
2021/09/30 03:06:37;;;;;;;4.13;2.13;;;7.40;99.90;;;;;;4941935;29;20734;-94
2021/09/30 03:09:06;;;;;;;3.20;1.67;;;7.20;99.90;;;;;;4932250;29;20679;-94
2021/09/30 03:11:49;;;;;;;3.80;1.80;;;7.10;99.90;;;;;;4934357;29;21112;-95
2021/09/30 03:14:17;;;;;;;3.70;2.07;;;7.00;99.90;;;;;;4929769;29;20668;-94
2021/09/30 03:16:46;;;;;;;3.27;2.00;;;7.10;99.90;;;;;;4944563;28;20644;-95
2021/09/30 03:19:32;;;;;;;1.93;1.43;;;7.00;99.90;;;;;;4936499;29;20715;-93
2021/09/30 03:22:14;;;;;;;2.60;1.80;;;7.00;99.90;;;;;;4932898;29;20714;-94
2021/09/30 03:24:43;;;;;;;3.40;1.77;;;7.00;99.90;;;;;;4924099;29;20632;-93
2021/09/30 03:27:11;;;;;;;2.33;1.63;;;7.10;99.90;;;;;;4928903;29;20651;-92
2021/09/30 03:29:38;;;;;;;1.57;1.40;;;7.10;99.90;;;;;;4931778;29;20672;-94
2021/09/30 03:32:06;;;;;;;3.63;2.00;;;7.00;99.90;;;;;;4936766;29;20682;-95
2021/09/30 03:34:34;;;;;;;2.37;2.10;;;7.00;99.90;;;;;;4925940;29;20729;-95
2021/09/30 03:37:05;;;;;;;4.00;1.70;;;7.00;99.90;;;;;;4934007;29;20654;-95
2021/09/30 03:39:32;;;;;;;2.40;1.63;;;6.90;99.90;;;;;;4935368;29;20982;-95
2021/09/30 03:41:59;;;;;;;2.07;1.50;;;7.00;99.90;;;;;;4936177;29;20673;-95
2021/09/30 03:44:26;;;;;;;3.53;1.87;;;6.90;99.90;;;;;;4929997;29;20645;-94
2021/09/30 03:46:54;;;;;;;2.80;2.10;;;6.90;99.90;;;;;;4936738;29;20643;-94
2021/09/30 03:49:26;;;;;;;3.33;2.27;;;6.80;99.90;;;;;;4935234;29;20650;-95
2021/09/30 03:51:58;;;;;;;3.00;2.50;;;6.80;99.90;;;;;;4929501;29;20710;-95
2021/09/30 03:54:39;;;;;;;3.97;1.90;;;6.70;99.90;;;;;;4935426;29;20645;-95
2021/09/30 03:57:22;;;;;;;3.30;1.80;;;6.70;99.90;;;;;;4928008;29;20725;-94
2021/09/30 03:59:48;;;;;;;3.70;2.10;;;6.80;99.90;;;;;;4927880;29;21061;-96
2021/09/30 04:02:15;;;;;;;3.67;1.67;;;6.70;99.90;;;;;;4933938;29;20762;-95
2021/09/30 04:04:44;;;;;;;3.23;2.60;;;6.60;99.90;;;;;;4934977;29;20661;-94
2021/09/30 04:07:11;;;;;;;2.97;1.80;;;6.60;99.90;;;;;;4927724;29;20649;-95
2021/09/30 04:10:36;;;;;;;2.10;1.90;;;6.60;99.90;;;;;;4929137;29;20647;-95
2021/09/30 04:13:06;;;;;;;5.07;2.10;;;6.70;99.90;;;;;;4931716;29;20771;-95
2021/09/30 04:15:34;;;;;;;3.20;2.00;;;6.50;99.90;;;;;;4936494;29;20655;-96
2021/09/30 04:18:02;;;;;;;3.00;1.57;;;6.50;99.90;;;;;;4935023;29;20674;-94
2021/09/30 04:20:30;;;;;;;3.67;1.63;;;6.60;99.90;;;;;;4932495;29;20735;-96
2021/09/30 04:22:59;;;;;;;2.30;1.50;;;6.60;99.90;;;;;;4935753;29;20769;-95
2021/09/30 04:25:27;;;;;;;2.50;1.77;;;6.60;99.90;;;;;;4936856;29;20636;-95
2021/09/30 04:27:55;;;;;;;3.40;2.00;;;6.60;99.90;;;;;;4940030;29;20655;-95
2021/09/30 04:30:24;;;;;;;2.00;1.40;;;6.50;99.90;;;;;;4927369;29;21223;-95
2021/09/30 04:33:10;;;;;;;3.40;1.63;;;6.50;99.90;;;;;;4937761;29;20767;-95
2021/09/30 04:38:20;;;;;;;1.97;1.77;;;6.40;99.90;;;;;;4933875;29;20624;-95
2021/09/30 04:40:47;;;;;;;5.40;2.00;;;6.40;99.90;;;;;;4932911;29;21224;-96
2021/09/30 04:43:14;;;;;;;3.53;1.90;;;6.40;99.90;;;;;;4933881;29;20667;-96
2021/09/30 04:45:44;;;;;;;2.87;1.83;;;6.40;99.90;;;;;;4936483;29;20627;-95
2021/09/30 04:48:13;;;;;;;5.10;1.90;;;6.40;99.90;;;;;;4938677;29;20738;-94
2021/09/30 04:50:43;;;;;;;3.00;1.90;;;6.40;99.90;;;;;;4936475;29;20662;-95
2021/09/30 04:53:12;;;;;;;2.77;1.73;;;6.30;99.90;;;;;;4937130;29;21014;-94
2021/09/30 05:04:00;;;;;;;2.33;1.83;;;6.30;99.90;;;;;;4963919;28;20660;-95
2021/09/30 05:09:27;;;;;;;3.43;1.57;;;6.30;99.90;;;;;;4975417;28;20682;-96
2021/09/30 05:21:28;;;;;;;4.80;1.97;;;6.40;99.90;;;;;;4937278;29;20629;-95
2021/09/30 05:27:45;;;;;;;4.63;2.20;;;6.40;99.90;;;;;;4934672;29;20644;-96
2021/09/30 06:58:10;;;;;;;3.47;2.10;;;8.60;99.90;;;;;;5225435;23;20686;-93
2021/09/30 07:00:37;;;;;;;4.33;1.90;;;8.70;99.90;;;;;;4942408;28;20735;-90
2021/09/30 07:03:04;;;;;;;4.33;2.13;;;8.90;99.90;;;;;;4928943;29;21288;-94
2021/09/30 07:05:32;;;;;;;3.70;2.00;;;9.00;99.90;;;;;;4930053;29;20729;-93
2021/09/30 07:08:02;;;;;;;3.53;2.10;;;9.10;99.90;;;;;;4928674;29;20660;-92
2021/09/30 07:10:29;;;;;;;2.60;2.00;;;9.20;99.90;;;;;;4929619;29;20638;-92
2021/09/30 07:12:57;;;;;;;3.30;1.83;;;9.30;99.90;;;;;;4931861;29;21247;-93
2021/09/30 08:11:50;;;;;;;2.80;1.80;;;12.00;99.90;;;;;;4785347;23;21080;-87
2021/09/30 08:14:24;;;;;;;2.33;1.50;;;12.00;99.90;;;;;;4929040;28;20655;-93
2021/09/30 08:16:53;;;;;;;10.07;2.97;;;11.90;99.90;;;;;;4939357;29;20728;-92
2021/09/30 08:19:20;;;;;;;3.73;1.77;;;12.10;99.90;;;;;;4935817;29;20632;-92
2021/09/30 08:21:47;;;;;;;2.90;1.77;;;12.20;99.90;;;;;;4924838;29;20635;-90
2021/09/30 08:24:21;;;;;;;4.40;2.03;;;12.20;99.90;;;;;;4928707;29;20735;-92
2021/09/30 08:26:58;;;;;;;4.50;2.17;;;12.80;99.90;;;;;;4926036;29;20662;-92
2021/09/30 08:29:29;;;;;;;3.63;1.30;;;12.90;99.90;;;;;;4932542;29;20635;-91
2021/09/30 08:31:59;;;;;;;4.77;1.80;;;12.90;99.90;;;;;;4932881;29;20667;-92
2021/09/30 08:34:26;;;;;;;2.67;1.30;;;13.10;99.90;;;;;;4931377;29;20642;-92
2021/09/30 08:36:57;;;;;;;6.00;2.30;;;13.10;99.90;;;;;;4920937;29;20684;-91
2021/09/30 08:39:26;;;;;;;3.77;1.87;;;12.80;99.90;;;;;;4925529;29;20614;-91
2021/09/30 08:42:09;;;;;;;2.93;1.40;;;13.10;99.90;;;;;;4934879;23;20670;-91
2021/09/30 08:44:36;;;;;;;3.60;1.33;;;13.40;99.90;;;;;;4883359;29;21020;-91
2021/09/30 08:47:24;;;;;;;3.77;1.70;;;13.70;99.90;;;;;;4891238;29;20645;-92
2021/09/30 08:50:07;;;;;;;3.00;1.00;;;14.30;99.90;;;;;;4890956;29;20693;-92
2021/09/30 08:52:41;;;;;;;7.30;1.63;;;14.70;99.90;;;;;;4889764;29;20748;-91
2021/09/30 08:55:09;;;;;;;4.10;1.20;;;14.60;99.90;;;;;;4883878;29;20752;-91
2021/09/30 08:57:44;;;;;;;3.03;1.00;;;14.60;99.90;;;;;;4892805;29;20622;-91
2021/09/30 09:00:13;;;;;;;4.07;1.07;;;14.60;99.90;;;;;;4896232;29;20735;-91
2021/09/30 09:02:44;;;;;;;1.70;0.97;;;14.50;99.90;;;;;;4894252;29;21255;-91
2021/09/30 09:05:13;;;;;;;5.43;1.70;;;14.50;99.90;;;;;;4888953;29;20646;-91
2021/09/30 09:07:53;;;;;;;3.53;1.33;;;14.50;99.90;;;;;;4889000;29;20633;-91
2021/09/30 09:10:26;;;;;;;5.53;0.80;;;14.50;99.90;;;;;;4906922;29;20640;-91
2021/09/30 09:13:11;;;;;;;2.93;0.90;;;14.60;99.90;;;;;;4905204;29;21112;-93
2021/09/30 09:15:46;;;;;;;5.50;0.97;;;14.40;99.90;;;;;;4893883;29;20633;-93
2021/09/30 09:18:20;;;;;;;3.53;1.00;;;14.60;99.90;;;;;;4893211;29;20628;-93
2021/09/30 09:21:06;;;;;;;3.13;1.23;;;14.40;99.90;;;;;;4891658;29;20721;-92
2021/09/30 09:26:50;;;;;;;6.63;1.10;;;14.90;99.90;;;;;;4895145;29;20629;-94
2021/09/30 09:29:27;;;;;;;5.33;1.00;;;15.00;97.90;;;;;;4903093;29;20635;-95
2021/09/30 09:31:57;;;;;;;2.07;1.30;;;15.10;99.90;;;;;;4902020;29;20636;-95
2021/09/30 09:34:28;;;;;;;4.83;1.00;;;15.30;99.00;;;;;;4895353;29;20649;-95
2021/09/30 09:37:19;;;;;;;3.17;0.90;;;14.90;99.30;;;;;;4895735;29;20640;-91
2021/09/30 09:39:58;;;;;;;1.50;0.83;;;15.00;99.40;;;;;;4869620;29;20649;-94
2021/09/30 09:42:34;;;;;;;2.90;0.93;;;15.30;99.30;;;;;;4899426;29;20695;-94
2021/09/30 09:45:29;;;;;;;2.63;0.70;;;15.80;96.50;;;;;;4902322;29;20688;-95
2021/09/30 09:48:17;;;;;;;1.57;0.60;;;15.50;94.70;;;;;;4897600;29;20741;-93
2021/09/30 09:50:44;;;;;;;1.97;0.70;;;15.30;95.30;;;;;;4901498;29;20636;-94
2021/09/30 09:56:18;;;;;;;1.67;0.60;;;15.60;94.90;;;;;;4871947;29;20640;-93
2021/09/30 10:05:48;;;;;;;1.27;0.60;;;16.50;91.60;;;;;;4912633;29;20620;-94
2021/09/30 10:12:14;;;;;;;3.50;1.17;;;15.70;91.80;;;;;;4854931;29;20657;-96
2021/09/30 10:19:12;;;;;;;;;;;;;;;;;;;;;
2021/09/30 10:25:23;;;;;;;3.53;0.87;;;16.10;92.50;;;;;;4798136;29;21055;-94
2021/09/30 10:27:57;;;;;;;2.80;1.67;;;16.50;90.20;;;;;;4804388;29;20648;-94
2021/09/30 10:30:37;;;;;;;1.70;0.70;;;16.60;91.10;;;;;;4885267;29;20748;-95
2021/09/30 10:33:19;;;;;;;2.17;1.00;;;16.20;91.00;;;;;;4893557;29;20768;-94
2021/09/30 10:35:52;;;;;;;2.10;0.90;;;15.90;91.50;;;;;;4894655;29;20644;-94
2021/09/30 10:41:40;;;;;;;2.30;1.30;;;15.60;88.60;;;;;;4908019;29;20650;-96
2021/09/30 10:54:16;;;;;;;2.40;0.80;;;17.30;89.10;;;;;;4856924;29;20728;-94
2021/09/30 11:01:13;;;;;;;1.27;0.40;;;18.40;82.40;;;;;;4849905;29;20626;-95
2021/09/30 11:04:01;;;;;;;0.87;0.57;;;19.20;76.80;;;;;;4902400;23;21277;-94
2021/09/30 11:06:42;;;;;;;1.63;0.40;;;18.70;73.80;;;;;;4935189;29;20608;-94
2021/09/30 11:15:03;;;;;;;1.37;0.40;;;19.00;68.10;;;;;;4928100;29;20632;-96
2021/09/30 11:17:58;;;;;;;2.63;0.93;;;19.30;68.90;;;;;;4928748;29;20661;-96
2021/09/30 11:20:36;;;;;;;1.17;0.80;;;19.30;68.30;;;;;;4915298;29;20632;-94
2021/09/30 11:23:04;;;;;;;1.67;0.50;;;19.30;68.60;;;;;;4929151;29;20668;-94
2021/09/30 11:26:01;;;;;;;2.53;1.73;;;19.70;68.40;;;;;;4921007;29;20663;-94
2021/09/30 11:28:31;;;;;;;1.80;0.50;;;20.10;68.50;;;;;;4918312;29;20738;-94
2021/09/30 11:31:22;;;;;;;0.77;0.50;;;19.90;65.90;;;;;;4923776;29;20640;-95
2021/09/30 11:33:50;;;;;;;1.47;0.83;;;20.00;65.70;;;;;;4925144;29;20686;-94
2021/09/30 11:36:29;;;;;;;1.47;0.70;;;20.00;63.80;;;;;;4925372;29;20731;-95
2021/09/30 11:39:09;;;;;;;1.67;0.83;;;20.30;65.10;;;;;;4931222;29;20639;-96
2021/09/30 11:41:40;;;;;;;1.47;0.50;;;20.30;62.10;;;;;;4923835;29;20751;-94
2021/09/30 11:44:19;;;;;;;3.83;0.70;;;19.90;61.40;;;;;;4926177;29;20671;-95
2021/09/30 11:46:51;;;;;;;1.83;0.70;;;20.10;62.50;;;;;;4927736;29;20636;-95
2021/09/30 11:49:19;;;;;;;2.20;0.67;;;19.70;59.60;;;;;;4935422;29;20636;-96
2021/09/30 11:51:49;;;;;;;1.33;0.57;;;19.70;60.20;;;;;;4926701;29;20732;-95
2021/09/30 11:54:19;;;;;;;2.80;1.00;;;20.00;60.40;;;;;;4928203;29;20720;-93
2021/09/30 11:56:53;;;;;;;2.10;0.57;;;20.00;57.70;;;;;;4927959;29;20744;-94
2021/09/30 12:00:01;;;;;;;2.23;0.63;;;20.30;58.50;;;;;;4925065;29;20655;-95
2021/09/30 12:03:24;;;;;;;2.00;0.60;;;19.40;57.90;;;;;;4927461;29;20658;-95
2021/09/30 12:05:57;;;;;;;3.50;0.80;;;18.80;58.60;;;;;;4916717;29;21207;-94
2021/09/30 12:08:24;;;;;;;1.00;0.60;;;18.90;59.20;;;;;;4921653;29;20632;-94
2021/09/30 12:11:24;;;;;;;1.37;0.57;;;19.30;61.30;;;;;;4926052;29;20630;-95
2021/09/30 12:14:04;;;;;;;3.70;0.97;;;19.60;61.90;;;;;;4929649;29;20690;-95
2021/09/30 12:16:57;;;;;;;1.00;0.50;;;20.20;60.00;;;;;;4926621;29;20635;-95
2021/09/30 12:20:09;;;;;;;2.20;0.67;;;20.90;56.30;;;;;;4924945;29;20701;-94
2021/09/30 12:22:57;;;;;;;2.27;1.33;;;20.80;56.30;;;;;;4921157;29;20754;-94
2021/09/30 12:25:26;;;;;;;1.70;0.70;;;21.50;55.60;;;;;;4928255;29;20623;-96
2021/09/30 12:27:56;;;;;;;2.97;0.80;;;21.60;55.70;;;;;;4923668;29;20644;-95
2021/09/30 12:30:32;;;;;;;0.90;0.30;;;21.90;55.00;;;;;;4930013;29;20635;-94
2021/09/30 12:33:08;;;;;;;5.47;0.40;;;22.20;53.70;;;;;;4921563;29;20737;-96
2021/09/30 12:35:46;;;;;;;1.10;0.57;;;22.00;55.10;;;;;;4918394;29;20725;-95
2021/09/30 12:38:31;;;;;;;2.50;0.80;;;22.50;53.80;;;;;;4928827;29;20778;-96
2021/09/30 12:41:50;;;;;;;;;;;;;;;;;;;;;
2021/09/30 12:58:39;;;;;;;1.30;0.80;;;23.80;50.20;;;;;;4817307;29;20725;-96
2021/09/30 13:01:35;;;;;;;1.17;0.73;;;23.10;51.10;;;;;;4895353;29;20627;-94
2021/09/30 13:04:18;;;;;;;2.90;0.83;;;23.90;51.30;;;;;;4923735;29;20664;-94
2021/09/30 13:07:13;;;;;;;1.53;0.87;;;23.60;51.60;;;;;;4923112;29;21203;-93
2021/09/30 13:09:58;;;;;;;2.50;0.83;;;24.10;50.90;;;;;;4923666;29;20645;-93
2021/09/30 13:13:20;;;;;;;1.50;0.90;;;24.40;50.10;;;;;;4926671;29;20667;-93
2021/09/30 13:16:00;;;;;;;2.00;0.63;;;24.40;49.20;;;;;;4913271;29;20655;-95
2021/09/30 13:18:38;;;;;;;2.33;0.87;;;24.20;47.80;;;;;;4920317;29;20643;-93
2021/09/30 13:21:26;;;;;;;1.10;0.70;;;24.10;49.60;;;;;;4927886;29;20651;-94
2021/09/30 13:23:57;;;;;;;2.37;0.73;;;24.50;48.10;;;;;;4926341;29;20657;-94
2021/09/30 13:26:24;;;;;;;1.00;0.60;;;24.50;48.10;;;;;;4920595;29;20730;-94
2021/09/30 13:29:07;;;;;;;2.13;0.70;;;23.80;49.20;;;;;;4923765;29;20643;-94
2021/09/30 13:31:36;;;;;;;2.40;0.73;;;23.90;49.30;;;;;;4922379;29;20652;-93
2021/09/30 13:34:05;;;;;;;3.50;0.67;;;24.30;47.60;;;;;;4926526;29;21216;-94
2021/09/30 13:36:32;;;;;;;1.80;0.63;;;24.50;48.70;;;;;;4915997;29;20638;-93
2021/09/30 13:39:00;;;;;;;3.57;0.70;;;24.20;47.60;;;;;;4928488;29;20636;-95
2021/09/30 13:41:27;;;;;;;2.13;0.90;;;23.70;46.80;;;;;;4929829;29;21198;-96
2021/09/30 13:43:57;;;;;;;1.03;0.60;;;23.90;48.10;;;;;;4924470;29;21057;-94
2021/09/30 13:46:25;;;;;;;1.30;0.60;;;24.20;48.60;;;;;;4921826;29;21282;-93
2021/09/30 13:48:53;;;;;;;1.53;1.07;;;24.30;47.00;;;;;;4929320;29;20649;-92
2021/09/30 13:51:22;;;;;;;1.90;0.80;;;24.80;46.70;;;;;;4929758;29;20620;-93
2021/09/30 13:53:49;;;;;;;1.13;0.63;;;24.70;47.70;;;;;;4920646;29;20682;-94
2021/09/30 13:56:16;;;;;;;3.60;0.90;;;25.10;46.60;;;;;;4925188;29;20628;-93
2021/09/30 13:58:55;;;;;;;2.63;0.73;;;25.10;46.70;;;;;;4924453;29;20643;-93
2021/09/30 14:01:22;;;;;;;1.30;0.70;;;23.50;47.20;;;;;;4926442;29;20654;-92
2021/09/30 14:03:50;;;;;;;1.30;0.77;;;23.70;48.10;;;;;;4927089;29;20683;-93
2021/09/30 14:06:19;;;;;;;1.23;0.67;;;23.40;47.20;;;;;;4924474;29;21205;-93
2021/09/30 14:08:49;;;;;;;1.30;1.03;;;23.30;47.90;;;;;;4923879;29;20620;-91
2021/09/30 14:11:18;;;;;;;1.20;0.57;;;23.50;46.90;;;;;;4930550;29;20650;-91
2021/09/30 14:13:46;;;;;;;3.40;0.70;;;24.00;48.60;;;;;;4929883;29;20678;-91
2021/09/30 14:16:14;;;;;;;2.40;0.70;;;23.90;47.30;;;;;;4931915;29;20632;-92
2021/09/30 14:18:43;;;;;;;1.07;0.63;;;23.80;48.00;;;;;;4946190;29;20592;-92
2021/09/30 14:21:12;;;;;;;2.73;0.70;;;23.80;48.10;;;;;;4949264;28;20650;-92
2021/09/30 14:23:43;;;;;;;1.70;0.53;;;24.30;49.00;;;;;;4945505;28;20679;-92
2021/09/30 14:26:11;;;;;;;2.83;0.80;;;24.30;48.90;;;;;;4925942;29;20661;-93
2021/09/30 14:28:41;;;;;;;1.70;1.00;;;24.40;48.40;;;;;;4928087;29;21056;-94
2021/09/30 14:31:11;;;;;;;2.03;0.87;;;24.50;46.50;;;;;;4930164;29;20666;-94
2021/09/30 14:33:39;;;;;;;2.30;0.80;;;25.00;45.60;;;;;;4949704;28;20643;-94
2021/09/30 14:36:06;;;;;;;2.10;1.20;;;25.00;44.70;;;;;;4944905;29;20622;-93
2021/09/30 14:38:34;;;;;;;2.03;0.70;;;24.70;46.30;;;;;;4926022;29;22369;-94
2021/09/30 14:41:03;;;;;;;1.27;0.60;;;23.60;46.70;;;;;;4934463;29;20647;-95
2021/09/30 14:43:36;;;;;;;1.90;0.60;;;23.80;46.10;;;;;;4930246;29;21033;-93
2021/09/30 14:46:06;;;;;;;2.37;0.70;;;24.10;46.30;;;;;;4927561;29;20639;-93
2021/09/30 14:48:37;;;;;;;1.80;0.70;;;24.30;45.70;;;;;;4933930;29;20643;-93
2021/09/30 14:51:06;;;;;;;3.53;1.10;;;24.30;46.40;;;;;;4929277;29;20643;-93
2021/09/30 14:53:35;;;;;;;2.40;0.80;;;24.50;45.70;;;;;;4938420;28;20649;-93
2021/09/30 14:56:09;;;;;;;2.30;0.80;;;24.20;46.60;;;;;;4934164;29;20714;-93
2021/09/30 14:58:39;;;;;;;1.63;0.90;;;24.10;46.60;;;;;;4941612;29;21057;-92
2021/09/30 15:01:14;;;;;;;1.30;0.80;;;24.20;46.40;;;;;;4949097;28;20612;-92
2021/09/30 15:03:41;;;;;;;1.73;0.73;;;24.30;47.60;;;;;;4946800;28;21090;-92
2021/09/30 15:06:12;;;;;;;5.83;0.90;;;24.10;46.40;;;;;;4930923;29;20623;-92
2021/09/30 15:08:39;;;;;;;3.07;0.93;;;24.60;45.40;;;;;;4926373;29;20642;-92
2021/09/30 15:11:08;;;;;;;2.00;0.80;;;24.30;45.70;;;;;;4928723;29;21258;-92
2021/09/30 15:13:35;;;;;;;1.67;0.60;;;24.50;45.40;;;;;;4926586;29;20670;-92
2021/09/30 15:16:05;;;;;;;2.30;0.83;;;25.00;44.50;;;;;;4924019;29;21321;-93
2021/09/30 15:18:50;;;;;;;1.00;0.50;;;24.30;44.70;;;;;;4920726;29;20713;-92
2021/09/30 15:21:24;;;;;;;2.40;0.90;;;24.50;43.80;;;;;;4924428;29;20639;-92
2021/09/30 15:23:56;;;;;;;2.13;0.97;;;25.30;43.60;;;;;;4924975;29;20649;-92
2021/09/30 15:26:26;;;;;;;1.10;0.67;;;25.20;43.20;;;;;;4925871;29;20620;-91
2021/09/30 15:29:00;;;;;;;4.67;0.90;;;25.10;43.60;;;;;;4922678;29;20672;-93
2021/09/30 15:31:29;;;;;;;5.33;1.67;;;25.00;43.20;;;;;;4928109;29;20588;-92
2021/09/30 15:33:58;;;;;;;0.80;0.47;;;24.10;44.20;;;;;;4922974;29;20676;-92
2021/09/30 15:36:32;;;;;;;1.60;0.80;;;24.00;44.10;;;;;;4927102;29;20636;-92
2021/09/30 15:39:08;;;;;;;2.37;0.70;;;25.00;44.40;;;;;;4932040;29;20652;-93
2021/09/30 15:41:40;;;;;;;2.87;0.90;;;25.20;43.20;;;;;;4932221;29;20592;-94
2021/09/30 15:44:07;;;;;;;1.97;0.97;;;24.60;43.30;;;;;;4924262;29;20656;-93
2021/09/30 15:46:35;;;;;;;1.00;0.80;;;24.30;44.40;;;;;;4925268;29;20635;-92
2021/09/30 15:49:08;;;;;;;4.47;0.97;;;24.80;43.90;;;;;;4922200;29;20699;-92
2021/09/30 15:51:38;;;;;;;0.80;0.70;;;24.30;44.40;;;;;;4938658;29;20631;-92
2021/09/30 15:54:06;;;;;;;4.27;0.90;;;24.50;44.60;;;;;;4942265;28;20776;-92
2021/09/30 15:56:34;;;;;;;1.37;0.77;;;23.90;44.70;;;;;;4942609;29;20688;-92
2021/09/30 15:59:03;;;;;;;2.27;0.70;;;23.30;45.90;;;;;;4934313;29;20630;-92
2021/09/30 16:01:32;;;;;;;0.90;0.60;;;22.40;46.90;;;;;;4924476;29;20676;-91
2021/09/30 16:03:59;;;;;;;2.50;0.80;;;21.30;48.20;;;;;;4930468;29;20770;-92
2021/09/30 16:06:27;;;;;;;1.53;0.70;;;20.70;47.70;;;;;;4929022;29;20647;-92
2021/09/30 16:08:55;;;;;;;1.50;0.50;;;20.30;49.80;;;;;;4926256;29;20644;-92
2021/09/30 16:11:23;;;;;;;2.10;2.00;;;20.30;50.10;;;;;;4925900;29;20631;-94
2021/09/30 16:13:51;;;;;;;2.40;2.20;;;20.90;53.40;;;;;;4923681;29;21311;-92
2021/09/30 16:16:22;;;;;;;2.00;1.70;;;20.70;52.00;;;;;;4928153;29;20639;-95
2021/09/30 16:18:51;;;;;;;2.77;2.10;;;20.50;55.10;;;;;;4932213;29;21800;-93
2021/09/30 16:21:19;;;;;;;3.97;3.67;;;20.40;52.80;;;;;;4927099;29;20649;-91
2021/09/30 16:23:46;;;;;;;3.00;1.40;;;19.60;56.50;;;;;;4927864;29;20718;-92
2021/09/30 16:26:19;;;;;;;4.37;2.70;;;18.60;57.00;;;;;;4931750;29;20615;-93
2021/09/30 16:28:46;;;;;;;5.67;3.10;;;18.30;65.50;;;;;;4926552;29;21189;-93
2021/09/30 16:31:14;;;;;;;4.17;1.93;;;17.80;70.40;;;;;;4929715;29;20637;-91
2021/09/30 16:33:42;;;;;;;2.40;1.43;;;17.50;73.80;;;;;;4927451;29;21074;-92
2021/09/30 16:36:10;;;;;;;3.70;1.37;;;17.10;78.10;;;;;;4919996;29;20717;-91
2021/09/30 16:38:37;;;;;;;2.03;1.00;;;16.80;78.90;;;;;;4926346;29;20692;-91
2021/09/30 16:41:04;;;;;;;1.73;1.00;;;16.60;80.60;;;;;;4925128;29;20639;-90
2021/09/30 16:43:31;;;;;;;4.30;1.10;;;16.20;83.00;;;;;;4929173;28;20662;-92
2021/09/30 16:46:05;;;;;;;2.20;0.90;;;16.00;86.10;;;;;;4924683;29;21039;-92
2021/09/30 16:48:32;;;;;;;1.30;1.00;;;15.80;87.80;;;;;;4926473;29;21097;-92
2021/09/30 16:51:00;;;;;;;2.93;1.03;;;15.60;89.70;;;;;;4921344;29;20640;-92
2021/09/30 16:53:29;;;;;;;2.23;1.30;;;15.30;90.70;;;;;;4925080;29;20640;-91
2021/09/30 16:55:58;;;;;;;2.50;0.97;;;15.20;96.70;;;;;;4918649;29;20663;-92
2021/09/30 16:58:27;;;;;;;4.27;2.43;;;14.90;97.50;;;;;;4926196;29;20620;-92
2021/09/30 17:00:54;;;;;;;3.30;1.60;;;14.70;99.90;;;;;;4923200;29;20662;-90
2021/09/30 17:03:22;;;;;;;7.33;1.43;;;14.30;99.90;;;;;;4919019;29;20652;-92
2021/09/30 17:05:49;;;;;;;1.47;1.10;;;14.20;99.90;;;;;;4921671;29;20655;-91
2021/09/30 17:08:18;;;;;;;2.23;1.20;;;14.00;99.90;;;;;;4928095;29;21140;-92
2021/09/30 17:10:44;;;;;;;2.03;1.30;;;13.70;99.90;;;;;;4922090;29;20655;-90
2021/09/30 17:13:11;;;;;;;4.80;2.40;;;13.50;99.90;;;;;;4922745;29;20683;-91
2021/09/30 17:15:39;;;;;;;2.80;2.20;;;13.30;99.90;;;;;;4916748;29;21215;-91
2021/09/30 17:18:06;;;;;;;1.70;1.20;;;13.10;99.90;;;;;;4933815;28;20846;-90
2021/09/30 17:20:34;;;;;;;1.83;1.10;;;12.90;99.90;;;;;;4927138;29;20632;-90
2021/09/30 17:23:01;;;;;;;2.90;1.10;;;12.80;99.90;;;;;;4926060;29;20679;-90
2021/09/30 17:25:30;;;;;;;4.07;1.50;;;12.60;99.90;;;;;;4927394;29;20703;-91
2021/09/30 17:27:57;;;;;;;3.40;1.53;;;12.50;99.90;;;;;;4926718;29;21188;-90
2021/09/30 17:30:25;;;;;;;2.30;1.60;;;12.30;99.90;;;;;;4924627;29;20635;-91
2021/09/30 17:32:53;;;;;;;2.50;1.13;;;12.10;99.90;;;;;;4924208;29;20659;-91
2021/09/30 17:35:23;;;;;;;1.50;1.20;;;12.10;99.90;;;;;;4927014;29;21227;-90
2021/09/30 17:37:50;;;;;;;3.83;1.13;;;12.10;99.90;;;;;;4923168;29;20643;-91
2021/09/30 17:40:18;;;;;;;2.40;1.10;;;12.00;99.90;;;;;;4919744;29;21115;-90
2021/09/30 17:42:48;;;;;;;1.13;0.83;;;12.00;99.90;;;;;;4925355;29;20659;-90
2021/09/30 17:45:16;;;;;;;1.90;1.17;;;11.90;99.90;;;;;;4926585;29;20675;-91
2021/09/30 17:47:44;;;;;;;1.90;1.10;;;11.80;99.90;;;;;;4927509;29;20824;-89
2021/09/30 17:50:12;;;;;;;2.27;0.80;;;11.70;99.90;;;;;;4928915;29;20643;-91
2021/09/30 17:52:39;;;;;;;1.20;0.90;;;11.60;99.90;;;;;;4928480;29;20639;-91
2021/09/30 17:55:11;;;;;;;5.37;4.87;;;11.60;99.90;;;;;;4927459;29;20639;-90
2021/09/30 17:57:38;;;;;;;7.03;5.93;;;11.50;99.90;;;;;;4929499;29;20636;-91
2021/09/30 18:00:13;;;;;;;3.83;3.53;;;11.60;99.90;;;;;;4921123;29;20636;-90
2021/09/30 18:02:42;;;;;;;2.73;1.90;;;11.50;99.90;;;;;;4923490;29;20650;-90
2021/09/30 18:05:09;;;;;;;5.50;4.97;;;11.40;99.90;;;;;;4929056;29;20640;-89
2021/09/30 18:07:39;;;;;;;4.73;3.33;;;11.30;99.90;;;;;;4922621;29;20746;-90
2021/09/30 18:10:07;;;;;;;2.40;1.40;;;11.20;99.90;;;;;;4931128;29;20665;-90
2021/09/30 18:12:34;;;;;;;2.80;2.30;;;11.10;99.90;;;;;;4930273;29;20662;-91
2021/09/30 18:15:01;;;;;;;5.53;5.07;;;11.00;99.90;;;;;;4922623;29;20651;-91
2021/09/30 18:17:29;;;;;;;4.17;1.60;;;11.00;99.90;;;;;;4922612;29;20734;-90
2021/09/30 18:19:57;;;;;;;2.00;1.37;;;10.90;99.90;;;;;;4923909;29;20685;-90
2021/09/30 18:22:27;;;;;;;3.67;3.37;;;10.80;99.90;;;;;;4922807;29;20723;-89
2021/09/30 18:25:13;;;;;;;3.83;3.50;;;10.70;99.90;;;;;;4927878;29;20731;-90
2021/09/30 18:27:42;;;;;;;2.20;1.67;;;10.60;99.90;;;;;;4922531;29;20624;-90
2021/09/30 18:30:10;;;;;;;2.90;2.70;;;10.50;99.90;;;;;;4929656;29;20634;-90
2021/09/30 18:32:38;;;;;;;2.30;1.30;;;10.40;99.90;;;;;;4930702;29;20743;-90
2021/09/30 18:35:07;;;;;;;1.33;1.10;;;10.20;99.90;;;;;;4925900;29;20659;-90
2021/09/30 18:37:39;;;;;;;1.10;1.00;;;10.30;99.90;;;;;;4930044;29;20628;-91
2021/09/30 18:40:09;;;;;;;2.53;1.00;;;10.20;99.90;;;;;;4932686;29;20585;-89
2021/09/30 18:42:37;;;;;;;2.33;1.00;;;10.20;99.90;;;;;;4928241;29;20659;-92
2021/09/30 18:45:08;;;;;;;1.57;1.47;;;10.20;99.90;;;;;;4924333;29;20639;-89
2021/09/30 18:47:38;;;;;;;1.10;1.00;;;10.10;99.90;;;;;;4929635;29;20735;-89
2021/09/30 18:50:07;;;;;;;2.57;1.37;;;10.20;99.90;;;;;;4927433;28;20605;-91
2021/09/30 18:52:36;;;;;;;1.20;0.73;;;10.10;99.90;;;;;;4926473;29;20694;-91
2021/09/30 18:55:06;;;;;;;2.43;1.20;;;10.20;99.90;;;;;;4929041;29;20663;-91
2021/09/30 18:57:34;;;;;;;1.60;1.10;;;10.00;99.90;;;;;;4932214;29;20639;-90
2021/09/30 19:00:02;;;;;;;2.13;1.50;;;9.90;99.90;;;;;;4925046;29;20623;-90
2021/09/30 19:02:30;;;;;;;2.77;1.67;;;9.90;99.90;;;;;;4927497;29;20666;-90
2021/09/30 19:05:05;;;;;;;2.00;1.50;;;9.90;99.90;;;;;;4927422;29;21216;-91
2021/09/30 19:07:34;;;;;;;5.00;1.60;;;9.80;99.90;;;;;;4935937;29;20703;-90
2021/09/30 19:10:04;;;;;;;2.93;1.90;;;9.80;99.90;;;;;;4934900;29;20637;-90
2021/09/30 19:12:33;;;;;;;4.20;2.37;;;9.90;99.90;;;;;;4933805;29;20674;-90
2021/09/30 19:15:07;;;;;;;3.27;1.80;;;9.80;99.90;;;;;;4927105;29;20642;-91
2021/09/30 19:17:42;;;;;;;2.20;2.00;;;9.60;99.90;;;;;;4931927;29;20644;-90
2021/09/30 19:20:14;;;;;;;3.70;1.73;;;9.50;99.90;;;;;;4931924;28;20627;-90
2021/09/30 19:22:42;;;;;;;2.70;1.73;;;9.50;99.90;;;;;;4929456;29;20692;-90
2021/09/30 19:25:11;;;;;;;2.63;2.10;;;9.50;99.90;;;;;;4928984;29;20694;-90
2021/09/30 19:27:45;;;;;;;2.07;1.70;;;9.40;99.90;;;;;;4926888;29;20627;-90
2021/09/30 19:30:13;;;;;;;2.47;1.73;;;9.30;99.90;;;;;;4931368;29;20619;-90
2021/09/30 19:32:44;;;;;;;2.80;1.87;;;9.30;99.90;;;;;;4932348;29;21238;-91